sensor_id;sensor_type;location;lat;lon;timestamp;P1;durP1;ratioP1;P2;durP2;ratioP2
8254;SDS011;4167;48.162;11.542;2023-10-09T00:00:56;463.90;;;420.80;;
8254;SDS011;4167;48.162;11.542;2023-10-09T00:03:26;453.30;;;410.75;;
8254;SDS011;4167;48.162;11.542;2023-10-09T00:05:54;454.63;;;411.90;;
8254;SDS011;4167;48.162;11.542;2023-10-09T00:08:22;450.63;;;408.80;;
8254;SDS011;4167;48.162;11.542;2023-10-09T00:10:52;458.27;;;416.50;;
8254;SDS011;4167;48.162;11.542;2023-10-09T00:13:19;442.35;;;401.10;;
8254;SDS011;4167;48.162;11.542;2023-10-09T00:15:52;447.85;;;406.45;;
8254;SDS011;4167;48.162;11.542;2023-10-09T00:18:22;453.67;;;411.00;;
8254;SDS011;4167;48.162;11.542;2023-10-09T00:20:55;451.40;;;409.85;;
8254;SDS011;4167;48.162;11.542;2023-10-09T00:23:26;443.60;;;402.77;;
8254;SDS011;4167;48.162;11.542;2023-10-09T00:25:53;450.52;;;409.13;;
8254;SDS011;4167;48.162;11.542;2023-10-09T00:28:33;433.40;;;393.27;;
8254;SDS011;4167;48.162;11.542;2023-10-09T00:31:02;443.02;;;401.75;;
8254;SDS011;4167;48.162;11.542;2023-10-09T00:33:31;443.67;;;402.17;;
8254;SDS011;4167;48.162;11.542;2023-10-09T00:36:02;452.58;;;410.70;;
8254;SDS011;4167;48.162;11.542;2023-10-09T00:38:35;445.70;;;404.23;;
8254;SDS011;4167;48.162;11.542;2023-10-09T00:41:04;455.25;;;412.13;;
8254;SDS011;4167;48.162;11.542;2023-10-09T00:43:35;443.60;;;402.08;;
8254;SDS011;4167;48.162;11.542;2023-10-09T00:46:02;455.30;;;412.92;;
8254;SDS011;4167;48.162;11.542;2023-10-09T00:48:34;444.77;;;403.20;;
8254;SDS011;4167;48.162;11.542;2023-10-09T00:51:06;444.20;;;402.17;;
8254;SDS011;4167;48.162;11.542;2023-10-09T00:53:41;459.98;;;417.50;;
8254;SDS011;4167;48.162;11.542;2023-10-09T00:58:43;450.90;;;409.20;;
8254;SDS011;4167;48.162;11.542;2023-10-09T01:01:12;450.33;;;408.70;;
8254;SDS011;4167;48.162;11.542;2023-10-09T01:03:41;455.05;;;413.30;;
8254;SDS011;4167;48.162;11.542;2023-10-09T01:06:10;439.95;;;398.63;;
8254;SDS011;4167;48.162;11.542;2023-10-09T01:12:08;449.15;;;403.85;;
8254;SDS011;4167;48.162;11.542;2023-10-09T01:14:41;438.95;;;397.40;;
8254;SDS011;4167;48.162;11.542;2023-10-09T01:17:08;462.08;;;419.70;;
8254;SDS011;4167;48.162;11.542;2023-10-09T01:19:36;442.52;;;401.45;;
8254;SDS011;4167;48.162;11.542;2023-10-09T01:22:04;454.45;;;411.17;;
8254;SDS011;4167;48.162;11.542;2023-10-09T01:24:39;452.73;;;410.50;;
8254;SDS011;4167;48.162;11.542;2023-10-09T01:27:06;444.52;;;403.50;;
8254;SDS011;4167;48.162;11.542;2023-10-09T01:29:37;440.88;;;399.80;;
8254;SDS011;4167;48.162;11.542;2023-10-09T01:32:06;442.75;;;401.33;;
8254;SDS011;4167;48.162;11.542;2023-10-09T01:34:41;437.95;;;396.38;;
8254;SDS011;4167;48.162;11.542;2023-10-09T01:37:10;446.00;;;404.73;;
8254;SDS011;4167;48.162;11.542;2023-10-09T01:39:45;451.15;;;409.02;;
8254;SDS011;4167;48.162;11.542;2023-10-09T01:42:13;442.88;;;402.05;;
8254;SDS011;4167;48.162;11.542;2023-10-09T01:44:48;441.23;;;399.75;;
8254;SDS011;4167;48.162;11.542;2023-10-09T01:47:15;440.02;;;399.33;;
8254;SDS011;4167;48.162;11.542;2023-10-09T01:49:43;449.58;;;407.83;;
8254;SDS011;4167;48.162;11.542;2023-10-09T01:52:14;453.00;;;411.30;;
8254;SDS011;4167;48.162;11.542;2023-10-09T01:54:41;447.98;;;406.17;;
8254;SDS011;4167;48.162;11.542;2023-10-09T01:57:14;445.63;;;404.20;;
8254;SDS011;4167;48.162;11.542;2023-10-09T01:59:46;448.80;;;407.58;;
8254;SDS011;4167;48.162;11.542;2023-10-09T02:02:15;450.33;;;408.90;;
8254;SDS011;4167;48.162;11.542;2023-10-09T02:04:51;437.98;;;396.98;;
8254;SDS011;4167;48.162;11.542;2023-10-09T02:07:20;438.73;;;397.30;;
8254;SDS011;4167;48.162;11.542;2023-10-09T02:09:53;445.58;;;404.50;;
8254;SDS011;4167;48.162;11.542;2023-10-09T02:12:22;440.92;;;399.60;;
8254;SDS011;4167;48.162;11.542;2023-10-09T02:14:49;443.60;;;402.35;;
8254;SDS011;4167;48.162;11.542;2023-10-09T02:17:19;442.77;;;402.00;;
8254;SDS011;4167;48.162;11.542;2023-10-09T02:19:49;443.70;;;401.55;;
8254;SDS011;4167;48.162;11.542;2023-10-09T02:22:17;447.00;;;405.35;;
8254;SDS011;4167;48.162;11.542;2023-10-09T02:24:44;451.00;;;409.35;;
8254;SDS011;4167;48.162;11.542;2023-10-09T02:27:24;444.00;;;403.25;;
8254;SDS011;4167;48.162;11.542;2023-10-09T02:30:11;442.58;;;401.02;;
8254;SDS011;4167;48.162;11.542;2023-10-09T02:32:44;444.75;;;403.15;;
8254;SDS011;4167;48.162;11.542;2023-10-09T02:35:14;449.50;;;407.77;;
8254;SDS011;4167;48.162;11.542;2023-10-09T02:38:01;449.17;;;407.38;;
8254;SDS011;4167;48.162;11.542;2023-10-09T02:40:30;448.45;;;407.45;;
8254;SDS011;4167;48.162;11.542;2023-10-09T02:42:59;447.63;;;404.33;;
8254;SDS011;4167;48.162;11.542;2023-10-09T02:45:26;439.40;;;399.02;;
8254;SDS011;4167;48.162;11.542;2023-10-09T02:48:11;439.30;;;398.08;;
8254;SDS011;4167;48.162;11.542;2023-10-09T02:50:39;450.80;;;408.75;;
8254;SDS011;4167;48.162;11.542;2023-10-09T02:53:09;446.63;;;405.27;;
8254;SDS011;4167;48.162;11.542;2023-10-09T02:55:44;448.83;;;405.52;;
8254;SDS011;4167;48.162;11.542;2023-10-09T02:58:29;437.95;;;397.15;;
8254;SDS011;4167;48.162;11.542;2023-10-09T03:00:57;448.02;;;406.15;;
8254;SDS011;4167;48.162;11.542;2023-10-09T03:03:24;441.42;;;400.70;;
8254;SDS011;4167;48.162;11.542;2023-10-09T03:05:50;449.35;;;406.63;;
8254;SDS011;4167;48.162;11.542;2023-10-09T03:08:17;441.42;;;400.70;;
8254;SDS011;4167;48.162;11.542;2023-10-09T03:10:44;439.30;;;398.58;;
8254;SDS011;4167;48.162;11.542;2023-10-09T03:13:10;433.67;;;392.73;;
8254;SDS011;4167;48.162;11.542;2023-10-09T03:15:41;442.20;;;400.95;;
8254;SDS011;4167;48.162;11.542;2023-10-09T03:18:07;448.15;;;405.90;;
8254;SDS011;4167;48.162;11.542;2023-10-09T03:20:34;454.67;;;412.13;;
8254;SDS011;4167;48.162;11.542;2023-10-09T03:23:01;442.98;;;401.45;;
8254;SDS011;4167;48.162;11.542;2023-10-09T03:25:28;441.02;;;400.33;;
8254;SDS011;4167;48.162;11.542;2023-10-09T03:30:23;436.73;;;396.30;;
8254;SDS011;4167;48.162;11.542;2023-10-09T03:32:52;442.73;;;401.38;;
8254;SDS011;4167;48.162;11.542;2023-10-09T03:35:19;445.17;;;403.55;;
8254;SDS011;4167;48.162;11.542;2023-10-09T03:37:54;442.75;;;401.15;;
8254;SDS011;4167;48.162;11.542;2023-10-09T03:40:25;438.00;;;396.65;;
8254;SDS011;4167;48.162;11.542;2023-10-09T03:42:54;449.63;;;406.42;;
8254;SDS011;4167;48.162;11.542;2023-10-09T03:45:21;441.05;;;399.83;;
8254;SDS011;4167;48.162;11.542;2023-10-09T03:47:53;449.52;;;405.98;;
8254;SDS011;4167;48.162;11.542;2023-10-09T03:50:28;439.80;;;398.77;;
8254;SDS011;4167;48.162;11.542;2023-10-09T03:53:01;446.48;;;403.13;;
8254;SDS011;4167;48.162;11.542;2023-10-09T03:55:29;439.27;;;397.10;;
8254;SDS011;4167;48.162;11.542;2023-10-09T03:57:57;460.50;;;416.35;;
8254;SDS011;4167;48.162;11.542;2023-10-09T04:00:24;441.83;;;398.20;;
8254;SDS011;4167;48.162;11.542;2023-10-09T04:02:55;447.60;;;404.48;;
8254;SDS011;4167;48.162;11.542;2023-10-09T04:05:22;438.80;;;397.33;;
8254;SDS011;4167;48.162;11.542;2023-10-09T04:07:49;434.83;;;393.25;;
8254;SDS011;4167;48.162;11.542;2023-10-09T04:10:18;435.60;;;393.58;;
8254;SDS011;4167;48.162;11.542;2023-10-09T04:13:16;441.35;;;399.33;;
8254;SDS011;4167;48.162;11.542;2023-10-09T04:15:43;440.35;;;398.98;;
8254;SDS011;4167;48.162;11.542;2023-10-09T04:18:11;445.42;;;402.88;;
8254;SDS011;4167;48.162;11.542;2023-10-09T04:23:43;435.67;;;394.27;;
8254;SDS011;4167;48.162;11.542;2023-10-09T04:26:24;439.80;;;397.83;;
8254;SDS011;4167;48.162;11.542;2023-10-09T04:28:51;434.40;;;392.83;;
8254;SDS011;4167;48.162;11.542;2023-10-09T04:31:18;438.10;;;396.20;;
8254;SDS011;4167;48.162;11.542;2023-10-09T04:33:48;441.88;;;398.05;;
8254;SDS011;4167;48.162;11.542;2023-10-09T04:36:41;441.05;;;398.70;;
8254;SDS011;4167;48.162;11.542;2023-10-09T04:39:14;447.00;;;404.05;;
8254;SDS011;4167;48.162;11.542;2023-10-09T04:42:13;447.60;;;405.63;;
8254;SDS011;4167;48.162;11.542;2023-10-09T04:45:01;446.08;;;403.23;;
8254;SDS011;4167;48.162;11.542;2023-10-09T04:47:46;432.80;;;391.80;;
8254;SDS011;4167;48.162;11.542;2023-10-09T04:50:24;441.60;;;400.08;;
8254;SDS011;4167;48.162;11.542;2023-10-09T04:53:12;444.08;;;399.13;;
8254;SDS011;4167;48.162;11.542;2023-10-09T04:55:55;448.30;;;404.98;;
8254;SDS011;4167;48.162;11.542;2023-10-09T04:58:23;443.80;;;402.30;;
8254;SDS011;4167;48.162;11.542;2023-10-09T05:00:52;437.98;;;395.85;;
8254;SDS011;4167;48.162;11.542;2023-10-09T05:03:37;441.33;;;399.55;;
8254;SDS011;4167;48.162;11.542;2023-10-09T05:06:11;442.67;;;400.73;;
8254;SDS011;4167;48.162;11.542;2023-10-09T05:09:07;448.92;;;405.55;;
8254;SDS011;4167;48.162;11.542;2023-10-09T05:11:39;439.55;;;397.85;;
8254;SDS011;4167;48.162;11.542;2023-10-09T05:14:40;444.02;;;402.65;;
8254;SDS011;4167;48.162;11.542;2023-10-09T05:17:26;442.17;;;399.38;;
8254;SDS011;4167;48.162;11.542;2023-10-09T05:19:53;443.42;;;399.20;;
8254;SDS011;4167;48.162;11.542;2023-10-09T05:22:44;440.48;;;398.48;;
8254;SDS011;4167;48.162;11.542;2023-10-09T05:25:22;442.80;;;401.70;;
8254;SDS011;4167;48.162;11.542;2023-10-09T05:28:12;435.88;;;392.85;;
8254;SDS011;4167;48.162;11.542;2023-10-09T05:30:56;444.23;;;401.42;;
8254;SDS011;4167;48.162;11.542;2023-10-09T05:33:31;440.80;;;399.92;;
8254;SDS011;4167;48.162;11.542;2023-10-09T05:35:59;445.92;;;403.73;;
8254;SDS011;4167;48.162;11.542;2023-10-09T05:38:42;458.45;;;411.55;;
8254;SDS011;4167;48.162;11.542;2023-10-09T05:41:13;438.98;;;395.90;;
8254;SDS011;4167;48.162;11.542;2023-10-09T05:44:10;445.58;;;401.35;;
8254;SDS011;4167;48.162;11.542;2023-10-09T05:46:54;446.00;;;401.15;;
8254;SDS011;4167;48.162;11.542;2023-10-09T05:49:47;430.40;;;389.20;;
8254;SDS011;4167;48.162;11.542;2023-10-09T05:52:31;448.48;;;404.33;;
8254;SDS011;4167;48.162;11.542;2023-10-09T05:55:16;441.35;;;398.20;;
8254;SDS011;4167;48.162;11.542;2023-10-09T05:58:00;443.58;;;398.95;;
8254;SDS011;4167;48.162;11.542;2023-10-09T06:00:45;449.23;;;406.23;;
8254;SDS011;4167;48.162;11.542;2023-10-09T06:03:29;440.88;;;397.80;;
8254;SDS011;4167;48.162;11.542;2023-10-09T06:06:13;440.40;;;397.02;;
8254;SDS011;4167;48.162;11.542;2023-10-09T06:08:57;464.33;;;414.02;;
8254;SDS011;4167;48.162;11.542;2023-10-09T06:12:01;441.20;;;395.83;;
8254;SDS011;4167;48.162;11.542;2023-10-09T06:14:41;439.75;;;396.95;;
8254;SDS011;4167;48.162;11.542;2023-10-09T06:17:43;445.75;;;397.98;;
8254;SDS011;4167;48.162;11.542;2023-10-09T06:20:09;467.10;;;417.25;;
8254;SDS011;4167;48.162;11.542;2023-10-09T06:22:50;467.23;;;419.10;;
8254;SDS011;4167;48.162;11.542;2023-10-09T06:25:23;458.27;;;410.77;;
8254;SDS011;4167;48.162;11.542;2023-10-09T06:28:00;452.73;;;403.98;;
8254;SDS011;4167;48.162;11.542;2023-10-09T06:30:27;457.08;;;407.17;;
8254;SDS011;4167;48.162;11.542;2023-10-09T06:32:54;463.88;;;411.13;;
8254;SDS011;4167;48.162;11.542;2023-10-09T06:35:40;466.40;;;413.83;;
8254;SDS011;4167;48.162;11.542;2023-10-09T06:38:18;484.40;;;410.52;;
8254;SDS011;4167;48.162;11.542;2023-10-09T06:40:48;477.58;;;425.65;;
8254;SDS011;4167;48.162;11.542;2023-10-09T06:43:34;461.02;;;401.75;;
8254;SDS011;4167;48.162;11.542;2023-10-09T06:46:14;462.88;;;411.38;;
8254;SDS011;4167;48.162;11.542;2023-10-09T06:48:58;474.98;;;423.23;;
8254;SDS011;4167;48.162;11.542;2023-10-09T06:51:40;456.48;;;401.88;;
8254;SDS011;4167;48.162;11.542;2023-10-09T06:54:06;473.08;;;412.13;;
8254;SDS011;4167;48.162;11.542;2023-10-09T06:56:34;466.95;;;416.05;;
8254;SDS011;4167;48.162;11.542;2023-10-09T06:59:20;451.67;;;402.25;;
8254;SDS011;4167;48.162;11.542;2023-10-09T07:02:06;457.92;;;407.60;;
8254;SDS011;4167;48.162;11.542;2023-10-09T07:04:50;462.95;;;412.83;;
8254;SDS011;4167;48.162;11.542;2023-10-09T07:07:20;455.77;;;405.83;;
8254;SDS011;4167;48.162;11.542;2023-10-09T07:09:49;460.80;;;411.73;;
8254;SDS011;4167;48.162;11.542;2023-10-09T07:12:35;466.40;;;417.08;;
8254;SDS011;4167;48.162;11.542;2023-10-09T07:15:09;470.27;;;416.05;;
8254;SDS011;4167;48.162;11.542;2023-10-09T07:18:02;466.38;;;414.52;;
8254;SDS011;4167;48.162;11.542;2023-10-09T07:20:46;467.00;;;415.58;;
8254;SDS011;4167;48.162;11.542;2023-10-09T07:23:26;500.85;;;427.70;;
8254;SDS011;4167;48.162;11.542;2023-10-09T07:26:05;472.30;;;408.40;;
8254;SDS011;4167;48.162;11.542;2023-10-09T07:29:02;486.20;;;411.52;;
8254;SDS011;4167;48.162;11.542;2023-10-09T07:31:42;473.27;;;423.13;;
8254;SDS011;4167;48.162;11.542;2023-10-09T07:34:10;484.95;;;432.80;;
8254;SDS011;4167;48.162;11.542;2023-10-09T07:37:03;515.47;;;460.45;;
8254;SDS011;4167;48.162;11.542;2023-10-09T07:39:30;532.63;;;474.80;;
8254;SDS011;4167;48.162;11.542;2023-10-09T07:42:01;563.80;;;503.67;;
8254;SDS011;4167;48.162;11.542;2023-10-09T07:44:45;544.33;;;487.23;;
8254;SDS011;4167;48.162;11.542;2023-10-09T07:47:19;543.10;;;481.17;;
8254;SDS011;4167;48.162;11.542;2023-10-09T07:50:08;548.72;;;479.85;;
8254;SDS011;4167;48.162;11.542;2023-10-09T07:52:46;520.55;;;464.38;;
8254;SDS011;4167;48.162;11.542;2023-10-09T07:55:14;525.05;;;461.80;;
8254;SDS011;4167;48.162;11.542;2023-10-09T07:57:51;502.77;;;448.17;;
8254;SDS011;4167;48.162;11.542;2023-10-09T08:00:18;519.20;;;455.60;;
8254;SDS011;4167;48.162;11.542;2023-10-09T08:03:15;507.95;;;453.55;;
8254;SDS011;4167;48.162;11.542;2023-10-09T08:05:50;498.65;;;440.58;;
8254;SDS011;4167;48.162;11.542;2023-10-09T08:08:18;494.75;;;440.02;;
8254;SDS011;4167;48.162;11.542;2023-10-09T08:11:06;512.20;;;457.80;;
8254;SDS011;4167;48.162;11.542;2023-10-09T08:13:51;508.05;;;452.17;;
8254;SDS011;4167;48.162;11.542;2023-10-09T08:16:25;500.77;;;445.55;;
8254;SDS011;4167;48.162;11.542;2023-10-09T08:19:02;488.70;;;435.92;;
8254;SDS011;4167;48.162;11.542;2023-10-09T08:21:45;496.65;;;438.30;;
8254;SDS011;4167;48.162;11.542;2023-10-09T08:24:33;494.35;;;436.42;;
8254;SDS011;4167;48.162;11.542;2023-10-09T08:27:06;509.13;;;453.52;;
8254;SDS011;4167;48.162;11.542;2023-10-09T08:29:50;474.30;;;422.83;;
8254;SDS011;4167;48.162;11.542;2023-10-09T08:32:45;487.27;;;434.40;;
8254;SDS011;4167;48.162;11.542;2023-10-09T08:35:30;497.77;;;445.17;;
8254;SDS011;4167;48.162;11.542;2023-10-09T08:37:59;494.50;;;440.73;;
8254;SDS011;4167;48.162;11.542;2023-10-09T08:40:33;495.55;;;432.77;;
8254;SDS011;4167;48.162;11.542;2023-10-09T08:43:05;510.95;;;455.08;;
8254;SDS011;4167;48.162;11.542;2023-10-09T08:45:39;491.90;;;438.00;;
8254;SDS011;4167;48.162;11.542;2023-10-09T08:48:06;506.70;;;433.33;;
8254;SDS011;4167;48.162;11.542;2023-10-09T08:50:41;497.58;;;444.77;;
8254;SDS011;4167;48.162;11.542;2023-10-09T08:53:09;493.52;;;436.17;;
8254;SDS011;4167;48.162;11.542;2023-10-09T08:55:42;501.15;;;439.08;;
8254;SDS011;4167;48.162;11.542;2023-10-09T08:58:11;513.80;;;454.38;;
8254;SDS011;4167;48.162;11.542;2023-10-09T09:00:44;496.50;;;442.45;;
8254;SDS011;4167;48.162;11.542;2023-10-09T09:03:12;504.33;;;449.30;;
8254;SDS011;4167;48.162;11.542;2023-10-09T09:05:47;499.67;;;445.13;;
8254;SDS011;4167;48.162;11.542;2023-10-09T09:08:23;484.40;;;426.10;;
8254;SDS011;4167;48.162;11.542;2023-10-09T09:10:56;503.88;;;449.58;;
8254;SDS011;4167;48.162;11.542;2023-10-09T09:13:30;499.65;;;444.45;;
8254;SDS011;4167;48.162;11.542;2023-10-09T09:15:59;492.40;;;439.05;;
8254;SDS011;4167;48.162;11.542;2023-10-09T09:18:27;499.63;;;443.05;;
8254;SDS011;4167;48.162;11.542;2023-10-09T09:21:03;501.50;;;446.38;;
8254;SDS011;4167;48.162;11.542;2023-10-09T09:26:20;493.85;;;440.05;;
8254;SDS011;4167;48.162;11.542;2023-10-09T09:29:02;498.88;;;437.00;;
8254;SDS011;4167;48.162;11.542;2023-10-09T09:31:30;505.38;;;443.73;;
8254;SDS011;4167;48.162;11.542;2023-10-09T09:34:02;503.33;;;445.70;;
8254;SDS011;4167;48.162;11.542;2023-10-09T09:36:38;509.90;;;455.38;;
8254;SDS011;4167;48.162;11.542;2023-10-09T09:39:19;516.63;;;460.98;;
8254;SDS011;4167;48.162;11.542;2023-10-09T09:41:59;506.00;;;447.92;;
8254;SDS011;4167;48.162;11.542;2023-10-09T09:44:30;503.00;;;448.17;;
8254;SDS011;4167;48.162;11.542;2023-10-09T09:46:59;505.90;;;452.17;;
8254;SDS011;4167;48.162;11.542;2023-10-09T09:49:27;505.33;;;450.42;;
8254;SDS011;4167;48.162;11.542;2023-10-09T09:51:59;506.88;;;449.13;;
8254;SDS011;4167;48.162;11.542;2023-10-09T09:54:28;491.60;;;437.25;;
8254;SDS011;4167;48.162;11.542;2023-10-09T09:56:58;509.52;;;442.95;;
8254;SDS011;4167;48.162;11.542;2023-10-09T09:59:26;495.33;;;441.10;;
8254;SDS011;4167;48.162;11.542;2023-10-09T10:01:56;506.67;;;452.80;;
8254;SDS011;4167;48.162;11.542;2023-10-09T10:04:31;503.50;;;449.65;;
8254;SDS011;4167;48.162;11.542;2023-10-09T10:07:02;500.45;;;437.33;;
8254;SDS011;4167;48.162;11.542;2023-10-09T10:09:34;500.05;;;445.25;;
8254;SDS011;4167;48.162;11.542;2023-10-09T10:12:04;498.92;;;444.17;;
8254;SDS011;4167;48.162;11.542;2023-10-09T10:17:24;498.85;;;432.67;;
8254;SDS011;4167;48.162;11.542;2023-10-09T10:19:59;514.65;;;459.40;;
8254;SDS011;4167;48.162;11.542;2023-10-09T10:22:27;507.15;;;450.17;;
8254;SDS011;4167;48.162;11.542;2023-10-09T10:24:55;499.30;;;444.70;;
8254;SDS011;4167;48.162;11.542;2023-10-09T10:27:22;514.30;;;451.88;;
8254;SDS011;4167;48.162;11.542;2023-10-09T10:33:04;514.65;;;444.33;;
8254;SDS011;4167;48.162;11.542;2023-10-09T10:35:37;499.67;;;445.38;;
8254;SDS011;4167;48.162;11.542;2023-10-09T10:38:28;513.30;;;457.27;;
8254;SDS011;4167;48.162;11.542;2023-10-09T10:41:14;508.75;;;452.98;;
8254;SDS011;4167;48.162;11.542;2023-10-09T10:43:43;534.90;;;459.83;;
8254;SDS011;4167;48.162;11.542;2023-10-09T10:46:46;501.35;;;446.58;;
8254;SDS011;4167;48.162;11.542;2023-10-09T10:49:17;517.85;;;462.77;;
8254;SDS011;4167;48.162;11.542;2023-10-09T10:51:46;492.08;;;438.05;;
8254;SDS011;4167;48.162;11.542;2023-10-09T10:54:27;506.05;;;449.10;;
8254;SDS011;4167;48.162;11.542;2023-10-09T10:57:34;502.95;;;446.55;;
8254;SDS011;4167;48.162;11.542;2023-10-09T11:00:19;506.38;;;441.30;;
8254;SDS011;4167;48.162;11.542;2023-10-09T11:03:03;506.70;;;450.80;;
8254;SDS011;4167;48.162;11.542;2023-10-09T11:05:42;513.83;;;458.75;;
8254;SDS011;4167;48.162;11.542;2023-10-09T11:10:45;490.65;;;437.55;;
8254;SDS011;4167;48.162;11.542;2023-10-09T11:13:22;507.15;;;452.27;;
8254;SDS011;4167;48.162;11.542;2023-10-09T11:16:00;503.23;;;448.75;;
8254;SDS011;4167;48.162;11.542;2023-10-09T11:18:49;518.50;;;461.70;;
8254;SDS011;4167;48.162;11.542;2023-10-09T11:21:16;518.53;;;461.83;;
8254;SDS011;4167;48.162;11.542;2023-10-09T11:24:05;555.13;;;466.67;;
8254;SDS011;4167;48.162;11.542;2023-10-09T11:26:51;512.15;;;447.92;;
8254;SDS011;4167;48.162;11.542;2023-10-09T11:29:21;516.20;;;460.63;;
8254;SDS011;4167;48.162;11.542;2023-10-09T11:32:14;528.95;;;453.95;;
8254;SDS011;4167;48.162;11.542;2023-10-09T11:34:43;499.75;;;445.45;;
8254;SDS011;4167;48.162;11.542;2023-10-09T11:37:17;494.08;;;439.33;;
8254;SDS011;4167;48.162;11.542;2023-10-09T11:39:56;500.38;;;445.15;;
8254;SDS011;4167;48.162;11.542;2023-10-09T11:42:26;500.33;;;438.98;;
8254;SDS011;4167;48.162;11.542;2023-10-09T11:45:01;514.90;;;448.23;;
8254;SDS011;4167;48.162;11.542;2023-10-09T11:47:44;513.10;;;445.23;;
8254;SDS011;4167;48.162;11.542;2023-10-09T11:50:19;517.00;;;460.80;;
8254;SDS011;4167;48.162;11.542;2023-10-09T11:52:56;505.48;;;450.38;;
8254;SDS011;4167;48.162;11.542;2023-10-09T11:55:42;505.08;;;450.83;;
8254;SDS011;4167;48.162;11.542;2023-10-09T11:58:15;499.65;;;445.27;;
8254;SDS011;4167;48.162;11.542;2023-10-09T12:00:48;527.13;;;436.35;;
8254;SDS011;4167;48.162;11.542;2023-10-09T12:03:16;499.02;;;444.70;;
8254;SDS011;4167;48.162;11.542;2023-10-09T12:05:46;536.40;;;461.02;;
8254;SDS011;4167;48.162;11.542;2023-10-09T12:08:13;509.40;;;453.55;;
8254;SDS011;4167;48.162;11.542;2023-10-09T12:10:41;502.88;;;441.08;;
8254;SDS011;4167;48.162;11.542;2023-10-09T12:13:08;520.33;;;447.17;;
8254;SDS011;4167;48.162;11.542;2023-10-09T12:15:36;513.38;;;457.42;;
8254;SDS011;4167;48.162;11.542;2023-10-09T12:18:06;502.60;;;443.10;;
8254;SDS011;4167;48.162;11.542;2023-10-09T12:20:39;505.65;;;447.42;;
8254;SDS011;4167;48.162;11.542;2023-10-09T12:23:07;499.05;;;443.25;;
8254;SDS011;4167;48.162;11.542;2023-10-09T12:25:39;506.30;;;451.80;;
8254;SDS011;4167;48.162;11.542;2023-10-09T12:28:10;521.95;;;447.27;;
8254;SDS011;4167;48.162;11.542;2023-10-09T12:30:39;515.20;;;457.10;;
8254;SDS011;4167;48.162;11.542;2023-10-09T12:33:07;516.00;;;455.17;;
8254;SDS011;4167;48.162;11.542;2023-10-09T12:35:38;503.98;;;446.38;;
8254;SDS011;4167;48.162;11.542;2023-10-09T12:38:05;501.83;;;443.02;;
8254;SDS011;4167;48.162;11.542;2023-10-09T12:40:35;522.28;;;464.33;;
8254;SDS011;4167;48.162;11.542;2023-10-09T12:45:28;519.25;;;447.15;;
8254;SDS011;4167;48.162;11.542;2023-10-09T12:47:58;522.95;;;446.92;;
8254;SDS011;4167;48.162;11.542;2023-10-09T12:50:28;512.13;;;447.77;;
8254;SDS011;4167;48.162;11.542;2023-10-09T12:52:55;525.40;;;461.38;;
8254;SDS011;4167;48.162;11.542;2023-10-09T12:55:26;515.92;;;456.23;;
8254;SDS011;4167;48.162;11.542;2023-10-09T12:57:57;513.55;;;447.92;;
8254;SDS011;4167;48.162;11.542;2023-10-09T13:00:31;510.83;;;453.75;;
8254;SDS011;4167;48.162;11.542;2023-10-09T13:03:00;530.10;;;462.25;;
8254;SDS011;4167;48.162;11.542;2023-10-09T13:05:27;489.88;;;434.17;;
8254;SDS011;4167;48.162;11.542;2023-10-09T13:07:53;542.25;;;462.20;;
8254;SDS011;4167;48.162;11.542;2023-10-09T13:10:21;492.55;;;438.25;;
8254;SDS011;4167;48.162;11.542;2023-10-09T13:15:20;499.92;;;439.67;;
8254;SDS011;4167;48.162;11.542;2023-10-09T13:17:47;485.70;;;430.77;;
8254;SDS011;4167;48.162;11.542;2023-10-09T13:22:42;496.15;;;438.67;;
8254;SDS011;4167;48.162;11.542;2023-10-09T13:25:10;489.17;;;435.48;;
8254;SDS011;4167;48.162;11.542;2023-10-09T13:27:41;517.70;;;451.13;;
8254;SDS011;4167;48.162;11.542;2023-10-09T13:30:15;511.90;;;438.63;;
8254;SDS011;4167;48.162;11.542;2023-10-09T13:32:47;502.92;;;447.48;;
8254;SDS011;4167;48.162;11.542;2023-10-09T13:35:16;499.77;;;428.33;;
8254;SDS011;4167;48.162;11.542;2023-10-09T13:37:43;504.38;;;448.70;;
8254;SDS011;4167;48.162;11.542;2023-10-09T13:40:19;499.10;;;443.13;;
8254;SDS011;4167;48.162;11.542;2023-10-09T13:42:52;491.17;;;437.55;;
8254;SDS011;4167;48.162;11.542;2023-10-09T13:45:23;491.02;;;430.50;;
8254;SDS011;4167;48.162;11.542;2023-10-09T13:47:52;488.48;;;434.98;;
8254;SDS011;4167;48.162;11.542;2023-10-09T13:50:22;500.05;;;431.20;;
8254;SDS011;4167;48.162;11.542;2023-10-09T13:52:54;497.88;;;443.08;;
8254;SDS011;4167;48.162;11.542;2023-10-09T13:55:21;483.52;;;429.23;;
8254;SDS011;4167;48.162;11.542;2023-10-09T13:57:49;514.33;;;439.52;;
8254;SDS011;4167;48.162;11.542;2023-10-09T14:00:21;479.55;;;422.67;;
8254;SDS011;4167;48.162;11.542;2023-10-09T14:02:58;495.50;;;440.52;;
8254;SDS011;4167;48.162;11.542;2023-10-09T14:05:28;488.35;;;429.30;;
8254;SDS011;4167;48.162;11.542;2023-10-09T14:07:55;487.77;;;428.85;;
8254;SDS011;4167;48.162;11.542;2023-10-09T14:10:25;527.30;;;440.95;;
8254;SDS011;4167;48.162;11.542;2023-10-09T14:12:55;494.67;;;434.48;;
8254;SDS011;4167;48.162;11.542;2023-10-09T14:15:22;510.70;;;435.23;;
8254;SDS011;4167;48.162;11.542;2023-10-09T14:17:48;486.90;;;427.42;;
8254;SDS011;4167;48.162;11.542;2023-10-09T14:20:20;496.45;;;428.92;;
8254;SDS011;4167;48.162;11.542;2023-10-09T14:22:58;486.80;;;424.75;;
8254;SDS011;4167;48.162;11.542;2023-10-09T14:25:31;473.92;;;421.75;;
8254;SDS011;4167;48.162;11.542;2023-10-09T14:27:58;488.65;;;434.58;;
8254;SDS011;4167;48.162;11.542;2023-10-09T14:30:25;485.05;;;424.23;;
8254;SDS011;4167;48.162;11.542;2023-10-09T14:32:58;500.55;;;429.90;;
8254;SDS011;4167;48.162;11.542;2023-10-09T14:35:27;476.55;;;421.15;;
8254;SDS011;4167;48.162;11.542;2023-10-09T14:37:55;495.48;;;424.38;;
8254;SDS011;4167;48.162;11.542;2023-10-09T14:40:23;475.42;;;423.65;;
8254;SDS011;4167;48.162;11.542;2023-10-09T14:42:56;495.17;;;439.83;;
8254;SDS011;4167;48.162;11.542;2023-10-09T14:45:24;481.50;;;424.27;;
8254;SDS011;4167;48.162;11.542;2023-10-09T14:47:51;499.50;;;445.02;;
8254;SDS011;4167;48.162;11.542;2023-10-09T14:50:19;491.55;;;426.60;;
8254;SDS011;4167;48.162;11.542;2023-10-09T14:52:47;487.85;;;433.98;;
8254;SDS011;4167;48.162;11.542;2023-10-09T14:55:15;482.90;;;429.83;;
8254;SDS011;4167;48.162;11.542;2023-10-09T14:57:48;504.27;;;421.80;;
8254;SDS011;4167;48.162;11.542;2023-10-09T15:00:15;493.48;;;431.20;;
8254;SDS011;4167;48.162;11.542;2023-10-09T15:02:48;491.95;;;422.85;;
8254;SDS011;4167;48.162;11.542;2023-10-09T15:05:15;518.30;;;436.60;;
8254;SDS011;4167;48.162;11.542;2023-10-09T15:07:42;498.70;;;428.02;;
8254;SDS011;4167;48.162;11.542;2023-10-09T15:10:10;497.17;;;426.52;;
8254;SDS011;4167;48.162;11.542;2023-10-09T15:12:40;521.92;;;436.15;;
8254;SDS011;4167;48.162;11.542;2023-10-09T15:15:10;503.70;;;424.60;;
8254;SDS011;4167;48.162;11.542;2023-10-09T15:17:39;477.27;;;423.98;;